Time;durP1;ratioP1;P1;durP2;ratioP2;P2;SDS_P1;SDS_P2;PMS_P1;PMS_P2;Temp;Humidity;BMP_temperature;BMP_pressure;BME280_temperature;BME280_humidity;BME280_pressure;Samples;Min_cycle;Max_cycle;Signal;HPM_P1;HPM_P2
2022/10/30 00:00:42;;;;;;;6.20;3.67;;;13.50;98.20;;;;;;4928155;29;20039;-85
2022/10/30 00:03:16;;;;;;;4.15;2.90;;;13.50;98.10;;;;;;4912859;29;20025;-84
2022/10/30 00:05:50;;;;;;;5.05;3.17;;;13.50;97.80;;;;;;4909439;29;20028;-84
2022/10/30 00:08:19;;;;;;;5.88;3.17;;;13.50;97.60;;;;;;4926757;29;20092;-86
2022/10/30 00:10:45;;;;;;;6.85;2.55;;;13.50;97.30;;;;;;4930959;29;20044;-87
2022/10/30 00:13:12;;;;;;;6.00;2.80;;;13.50;97.10;;;;;;4952235;29;20033;-85
2022/10/30 00:15:38;;;;;;;6.10;2.53;;;13.60;96.80;;;;;;4950492;29;20043;-83
2022/10/30 00:18:04;;;;;;;3.60;2.03;;;13.50;96.60;;;;;;4948539;29;20119;-86
2022/10/30 00:20:30;;;;;;;5.68;3.20;;;13.60;96.30;;;;;;4950632;29;20028;-85
2022/10/30 00:22:58;;;;;;;9.35;2.95;;;13.60;96.20;;;;;;4932961;29;20139;-86
2022/10/30 00:25:24;;;;;;;5.10;2.55;;;13.60;96.00;;;;;;4942103;29;20028;-85
2022/10/30 00:27:49;;;;;;;6.53;2.35;;;13.60;96.10;;;;;;4943910;29;20028;-85
2022/10/30 00:30:16;;;;;;;6.70;2.55;;;13.60;96.10;;;;;;4944936;29;20171;-86
2022/10/30 00:32:42;;;;;;;10.77;3.90;;;13.60;96.10;;;;;;4943782;29;20107;-84
2022/10/30 00:35:09;;;;;;;6.20;2.60;;;13.60;96.40;;;;;;4943702;29;20115;-86
2022/10/30 00:37:35;;;;;;;6.90;3.13;;;13.60;96.20;;;;;;4943197;29;20037;-87
2022/10/30 00:40:00;;;;;;;5.78;2.45;;;13.50;96.30;;;;;;4943555;29;20123;-87
2022/10/30 00:42:30;;;;;;;11.23;3.60;;;13.50;96.30;;;;;;4943704;29;20036;-86
2022/10/30 00:44:56;;;;;;;13.60;4.18;;;13.50;96.50;;;;;;4947680;29;20030;-86
2022/10/30 00:47:36;;;;;;;11.27;3.90;;;13.40;96.50;;;;;;4943297;29;20377;-86
2022/10/30 00:50:15;;;;;;;8.13;3.15;;;13.40;96.60;;;;;;4941971;29;20028;-86
2022/10/30 00:53:10;;;;;;;4.57;2.80;;;13.30;96.80;;;;;;4948509;28;20016;-85
2022/10/30 00:55:44;;;;;;;7.93;3.75;;;13.30;97.10;;;;;;4925756;29;20064;-85
2022/10/30 00:58:14;;;;;;;8.82;3.47;;;13.20;97.50;;;;;;4943017;29;20095;-86
2022/10/30 01:00:45;;;;;;;9.85;3.67;;;13.20;97.90;;;;;;4943017;29;20065;-85
2022/10/30 01:03:11;;;;;;;12.15;4.15;;;13.10;98.20;;;;;;4949024;29;20059;-85
2022/10/30 01:05:38;;;;;;;12.40;4.47;;;13.10;98.40;;;;;;4964093;29;20031;-86
2022/10/30 01:08:04;;;;;;;9.23;3.22;;;13.00;98.50;;;;;;4962443;29;20051;-87
2022/10/30 01:10:29;;;;;;;10.20;3.70;;;13.00;98.60;;;;;;4966262;29;20015;-86
2022/10/30 01:12:57;;;;;;;4.97;2.88;;;12.90;98.60;;;;;;4972295;28;20023;-84
2022/10/30 01:15:29;;;;;;;5.90;2.95;;;12.90;98.80;;;;;;4961735;28;20071;-83
2022/10/30 01:18:13;;;;;;;4.03;2.67;;;12.90;98.90;;;;;;4961896;28;20074;-84
2022/10/30 01:21:03;;;;;;;3.95;2.35;;;12.80;99.10;;;;;;4945143;29;20111;-86
2022/10/30 01:23:55;;;;;;;6.22;2.80;;;12.80;99.20;;;;;;4969526;29;20019;-86
2022/10/30 01:26:38;;;;;;;5.27;2.77;;;12.80;99.30;;;;;;4961843;29;20092;-83
2022/10/30 01:29:28;;;;;;;7.10;3.25;;;12.70;99.60;;;;;;4978935;28;20031;-83
2022/10/30 01:32:03;;;;;;;5.75;3.00;;;12.70;99.80;;;;;;4961985;29;20050;-84
2022/10/30 01:34:56;;;;;;;6.72;3.65;;;12.70;99.90;;;;;;4978000;29;20042;-84
2022/10/30 01:37:44;;;;;;;5.20;2.72;;;12.70;99.90;;;;;;4977886;29;20023;-82
2022/10/30 01:40:15;;;;;;;6.40;2.80;;;12.70;99.90;;;;;;4944954;29;20450;-83
2022/10/30 01:42:43;;;;;;;6.10;3.22;;;12.60;99.90;;;;;;4934962;29;20058;-85
2022/10/30 01:45:23;;;;;;;5.97;3.00;;;12.60;99.90;;;;;;4955282;29;20028;-85
2022/10/30 01:47:48;;;;;;;4.25;2.63;;;12.60;99.90;;;;;;4957810;29;20036;-83
2022/10/30 01:50:44;;;;;;;8.35;2.80;;;12.60;99.90;;;;;;4958578;28;20046;-82
2022/10/30 01:53:19;;;;;;;7.53;3.28;;;12.60;99.90;;;;;;4953618;29;20087;-85
2022/10/30 01:55:50;;;;;;;6.18;3.60;;;12.50;99.90;;;;;;4946376;29;20031;-84
2022/10/30 01:58:18;;;;;;;5.13;3.10;;;12.50;99.90;;;;;;4946438;29;20121;-84
2022/10/30 02:00:48;;;;;;;6.40;3.35;;;12.50;99.90;;;;;;4963803;29;20031;-86
2022/10/30 02:03:14;;;;;;;8.77;3.08;;;12.50;99.90;;;;;;4962384;29;20023;-86
2022/10/30 02:05:47;;;;;;;5.63;2.80;;;12.50;99.90;;;;;;4963491;29;20074;-86
2022/10/30 02:08:13;;;;;;;5.13;2.80;;;12.40;99.90;;;;;;4961976;29;20503;-85
2022/10/30 02:10:41;;;;;;;4.35;2.65;;;12.50;99.90;;;;;;4965845;29;20059;-86
2022/10/30 02:13:07;;;;;;;8.07;2.60;;;12.40;99.90;;;;;;4959255;29;20032;-86
2022/10/30 02:15:34;;;;;;;5.30;2.60;;;12.40;99.90;;;;;;4946405;29;20115;-84
2022/10/30 02:17:59;;;;;;;5.93;2.80;;;12.40;99.90;;;;;;4943714;29;20043;-85
2022/10/30 02:20:25;;;;;;;8.13;2.70;;;12.40;99.90;;;;;;4927522;29;20028;-86
2022/10/30 02:22:51;;;;;;;5.55;2.58;;;12.40;99.90;;;;;;4941674;29;20083;-87
2022/10/30 02:25:17;;;;;;;5.30;2.90;;;12.40;99.90;;;;;;4942315;29;20055;-86
2022/10/30 02:27:42;;;;;;;5.68;2.65;;;12.30;99.90;;;;;;4943278;29;20513;-86
2022/10/30 02:30:14;;;;;;;3.75;2.92;;;12.30;99.90;;;;;;4941912;29;20031;-85
2022/10/30 02:32:40;;;;;;;5.75;2.42;;;12.30;99.90;;;;;;4944250;29;20191;-85
2022/10/30 02:35:06;;;;;;;5.93;3.22;;;12.30;99.90;;;;;;4946283;29;20028;-85
2022/10/30 02:37:34;;;;;;;7.43;2.67;;;12.30;99.90;;;;;;4926147;29;20032;-86
2022/10/30 02:40:01;;;;;;;9.85;3.47;;;12.30;99.90;;;;;;4943295;29;20035;-85
2022/10/30 02:42:26;;;;;;;7.50;3.15;;;12.30;99.90;;;;;;4926152;29;20581;-86
2022/10/30 02:44:52;;;;;;;5.65;2.88;;;12.20;99.90;;;;;;4941305;29;20032;-86
2022/10/30 02:47:18;;;;;;;10.02;3.08;;;12.20;99.90;;;;;;4933543;29;20095;-85
2022/10/30 02:49:43;;;;;;;8.57;3.65;;;12.20;99.90;;;;;;4931623;29;20028;-85
2022/10/30 02:52:09;;;;;;;5.00;2.97;;;12.20;99.90;;;;;;4928246;29;20028;-84
2022/10/30 02:54:35;;;;;;;5.40;2.70;;;12.20;99.90;;;;;;4925111;29;20034;-85
2022/10/30 02:57:01;;;;;;;6.65;2.97;;;12.20;99.90;;;;;;4926289;29;20028;-86
2022/10/30 02:59:28;;;;;;;9.88;3.70;;;12.20;99.90;;;;;;4938916;29;20024;-86
2022/10/30 03:01:53;;;;;;;8.23;3.30;;;12.10;99.90;;;;;;4924568;29;20474;-84
2022/10/30 03:04:19;;;;;;;7.00;3.60;;;12.10;99.90;;;;;;4940805;29;20029;-83
2022/10/30 03:06:44;;;;;;;8.68;3.80;;;12.10;99.90;;;;;;4940185;29;20108;-87
2022/10/30 03:09:10;;;;;;;5.32;3.05;;;12.10;99.90;;;;;;4925929;29;20034;-85
2022/10/30 03:11:36;;;;;;;8.13;3.60;;;12.00;99.90;;;;;;4925600;29;20031;-86
2022/10/30 03:14:01;;;;;;;8.02;2.92;;;12.00;99.90;;;;;;4931098;28;20076;-84
2022/10/30 03:16:28;;;;;;;8.93;3.58;;;12.00;99.90;;;;;;4943496;29;20038;-86
2022/10/30 03:18:54;;;;;;;8.90;3.80;;;11.90;99.90;;;;;;4943165;29;20079;-83
2022/10/30 03:21:22;;;;;;;8.07;3.42;;;11.90;99.90;;;;;;4946962;29;20032;-85
2022/10/30 03:23:51;;;;;;;15.18;5.05;;;11.90;99.90;;;;;;4927986;29;20039;-87
2022/10/30 03:26:20;;;;;;;10.38;4.88;;;11.90;99.90;;;;;;4944436;29;20140;-84
2022/10/30 03:28:46;;;;;;;11.52;4.32;;;11.90;99.90;;;;;;4927652;29;20038;-84
2022/10/30 03:31:15;;;;;;;11.75;4.15;;;11.90;99.90;;;;;;4948825;29;20110;-85
2022/10/30 03:33:41;;;;;;;11.77;4.20;;;11.90;99.90;;;;;;4948646;29;20092;-86
2022/10/30 03:36:09;;;;;;;5.90;3.80;;;11.90;99.90;;;;;;4943542;29;20019;-84
2022/10/30 03:38:35;;;;;;;6.68;3.42;;;11.90;99.90;;;;;;4942326;29;20046;-87
2022/10/30 03:41:00;;;;;;;7.80;3.97;;;11.90;99.90;;;;;;4945603;29;20397;-83
2022/10/30 03:43:28;;;;;;;5.00;3.13;;;11.90;99.90;;;;;;4926454;29;20108;-86
2022/10/30 03:45:55;;;;;;;4.28;3.35;;;11.90;99.90;;;;;;4942560;29;20509;-85
2022/10/30 03:48:25;;;;;;;8.52;3.97;;;11.90;99.90;;;;;;4942726;29;20028;-86
2022/10/30 03:50:58;;;;;;;6.80;3.60;;;11.90;99.90;;;;;;4935326;29;20034;-84
2022/10/30 03:53:25;;;;;;;6.18;3.35;;;11.90;99.90;;;;;;4946870;28;20026;-83
2022/10/30 03:55:51;;;;;;;6.30;3.50;;;11.90;99.90;;;;;;4950386;28;20028;-87
2022/10/30 03:58:17;;;;;;;5.85;3.30;;;11.90;99.90;;;;;;4948630;29;20117;-85
2022/10/30 04:00:43;;;;;;;6.78;3.33;;;11.90;99.90;;;;;;4964452;29;20055;-83
2022/10/30 04:03:09;;;;;;;7.80;3.83;;;11.90;99.90;;;;;;4961300;29;20051;-82
2022/10/30 04:05:36;;;;;;;8.98;3.60;;;11.90;99.90;;;;;;4961367;29;20027;-84
2022/10/30 04:08:06;;;;;;;8.23;3.45;;;11.90;99.90;;;;;;4944704;29;20035;-86
2022/10/30 04:10:32;;;;;;;5.68;2.53;;;11.90;99.90;;;;;;4936754;29;20020;-85
2022/10/30 04:13:00;;;;;;;6.85;3.53;;;11.90;99.90;;;;;;4944098;29;20342;-86
2022/10/30 04:15:26;;;;;;;10.02;3.65;;;11.90;99.90;;;;;;4925190;29;20015;-86
2022/10/30 04:17:51;;;;;;;6.93;3.38;;;12.00;99.90;;;;;;4925985;29;20023;-84
2022/10/30 04:20:18;;;;;;;5.60;3.10;;;12.00;99.90;;;;;;4950715;29;20099;-85
2022/10/30 04:22:44;;;;;;;7.93;2.50;;;12.00;99.90;;;;;;4964094;29;20056;-84
2022/10/30 04:25:10;;;;;;;6.05;2.55;;;12.00;99.90;;;;;;4961799;29;20023;-84
2022/10/30 04:27:43;;;;;;;3.55;2.63;;;11.90;99.90;;;;;;4961924;29;20032;-84
2022/10/30 04:30:11;;;;;;;7.63;3.00;;;11.90;99.90;;;;;;4962095;29;20496;-86
2022/10/30 04:32:45;;;;;;;8.93;3.88;;;11.90;99.90;;;;;;4930105;29;20055;-86
2022/10/30 04:35:14;;;;;;;6.40;3.20;;;11.90;99.90;;;;;;4963959;29;20083;-86
2022/10/30 04:37:39;;;;;;;11.30;3.47;;;11.90;99.90;;;;;;4966282;28;20373;-84
2022/10/30 04:40:09;;;;;;;7.88;3.30;;;11.90;99.90;;;;;;4959372;29;20061;-85
2022/10/30 04:42:34;;;;;;;5.22;3.10;;;11.80;99.90;;;;;;4946031;29;20039;-86
2022/10/30 04:45:01;;;;;;;7.13;2.90;;;11.80;99.90;;;;;;4923348;29;20092;-82
2022/10/30 04:47:28;;;;;;;6.72;2.95;;;11.80;99.90;;;;;;4960386;28;20039;-82
2022/10/30 04:49:53;;;;;;;11.32;4.05;;;11.80;99.90;;;;;;4958352;29;20028;-86
2022/10/30 04:52:19;;;;;;;7.05;4.10;;;11.80;99.90;;;;;;4950626;29;20030;-86
2022/10/30 04:54:45;;;;;;;9.27;3.97;;;11.80;99.90;;;;;;4956146;29;20039;-84
2022/10/30 04:57:10;;;;;;;8.30;3.92;;;11.70;99.90;;;;;;4931855;29;20038;-86
2022/10/30 04:59:36;;;;;;;8.18;3.50;;;11.80;99.90;;;;;;4950255;29;20024;-84
2022/10/30 05:02:02;;;;;;;7.78;3.42;;;11.70;99.90;;;;;;4929323;29;20452;-85
2022/10/30 05:04:27;;;;;;;5.35;3.17;;;11.70;99.90;;;;;;4944712;29;20032;-85
2022/10/30 05:06:53;;;;;;;9.40;3.30;;;11.70;99.90;;;;;;4953330;29;20035;-86
2022/10/30 05:09:19;;;;;;;7.00;3.10;;;11.70;99.90;;;;;;4968260;29;20028;-86
2022/10/30 05:11:44;;;;;;;5.68;3.47;;;11.60;99.90;;;;;;4967595;29;20526;-85
2022/10/30 05:14:10;;;;;;;9.40;3.40;;;11.60;99.90;;;;;;4960909;29;20043;-85
2022/10/30 05:16:36;;;;;;;6.00;3.28;;;11.60;99.90;;;;;;4947221;29;20374;-87
2022/10/30 05:19:01;;;;;;;9.02;2.88;;;11.60;99.90;;;;;;4947255;29;20492;-85
2022/10/30 05:21:27;;;;;;;9.48;3.80;;;11.60;99.90;;;;;;4965540;29;20027;-85
2022/10/30 05:23:53;;;;;;;7.60;4.40;;;11.50;99.90;;;;;;4979824;29;20035;-82
2022/10/30 05:26:18;;;;;;;7.55;3.22;;;11.50;99.90;;;;;;4962871;29;20024;-80
2022/10/30 05:28:44;;;;;;;5.22;2.78;;;11.50;99.90;;;;;;4960586;28;20031;-81
2022/10/30 05:31:10;;;;;;;6.40;2.95;;;11.50;99.90;;;;;;4960222;29;20050;-84
2022/10/30 05:33:35;;;;;;;16.83;4.78;;;11.50;99.90;;;;;;4927719;29;20035;-87
2022/10/30 05:36:01;;;;;;;7.38;3.25;;;11.50;99.90;;;;;;4943786;29;20039;-83
2022/10/30 05:38:26;;;;;;;5.68;3.08;;;11.50;99.90;;;;;;4945094;29;20032;-84
2022/10/30 05:40:52;;;;;;;4.15;2.45;;;11.50;99.90;;;;;;4946582;29;20107;-84
2022/10/30 05:43:18;;;;;;;8.00;3.03;;;11.40;99.90;;;;;;4945239;29;20143;-84
2022/10/30 05:45:43;;;;;;;6.90;2.90;;;11.40;99.90;;;;;;4938123;29;20362;-83
2022/10/30 05:48:09;;;;;;;15.30;4.13;;;11.40;99.90;;;;;;4925179;29;20044;-83
2022/10/30 05:50:35;;;;;;;12.55;3.60;;;11.40;99.90;;;;;;4926171;29;20035;-80
2022/10/30 05:53:04;;;;;;;7.80;3.63;;;11.40;99.90;;;;;;4942730;29;20137;-84
2022/10/30 05:55:30;;;;;;;5.13;2.72;;;11.40;99.90;;;;;;4946463;29;20059;-83
2022/10/30 05:58:01;;;;;;;7.22;2.80;;;11.40;99.90;;;;;;4945569;29;20027;-83
2022/10/30 06:00:29;;;;;;;6.57;2.67;;;11.50;99.90;;;;;;4945945;29;20110;-84
2022/10/30 06:03:02;;;;;;;6.35;2.90;;;11.50;99.90;;;;;;4928365;29;20027;-84
2022/10/30 06:05:30;;;;;;;4.72;2.83;;;11.50;99.90;;;;;;4946676;29;20020;-83
2022/10/30 06:07:56;;;;;;;7.63;3.28;;;11.50;99.90;;;;;;4945097;29;20036;-84
2022/10/30 06:10:22;;;;;;;5.10;3.28;;;11.60;99.90;;;;;;4944862;29;20103;-83
2022/10/30 06:13:06;;;;;;;9.45;3.83;;;11.60;99.90;;;;;;4945904;28;20067;-84
2022/10/30 06:15:32;;;;;;;6.68;2.63;;;11.70;99.90;;;;;;4940401;29;20028;-84
2022/10/30 06:17:59;;;;;;;3.92;2.40;;;11.70;99.90;;;;;;4943230;29;20086;-84
2022/10/30 06:20:29;;;;;;;9.23;3.22;;;11.80;99.90;;;;;;4946366;29;20084;-85
2022/10/30 06:23:07;;;;;;;5.25;2.80;;;11.80;99.90;;;;;;4952876;29;20032;-81
2022/10/30 06:25:34;;;;;;;5.80;2.13;;;11.90;99.90;;;;;;4949977;29;20028;-83
2022/10/30 06:28:00;;;;;;;4.35;2.63;;;12.00;99.90;;;;;;4950543;29;20483;-83
2022/10/30 06:30:27;;;;;;;8.73;3.00;;;12.00;99.80;;;;;;4968633;29;20054;-83
2022/10/30 06:33:00;;;;;;;4.10;2.28;;;12.10;99.60;;;;;;4937073;29;20070;-82
2022/10/30 06:35:26;;;;;;;7.07;2.55;;;12.20;99.20;;;;;;4928596;29;20091;-83
2022/10/30 06:37:54;;;;;;;10.20;3.15;;;12.30;98.80;;;;;;4909246;29;20063;-84
2022/10/30 06:40:19;;;;;;;6.80;2.38;;;12.30;98.50;;;;;;4925188;29;20032;-83
2022/10/30 06:42:47;;;;;;;4.97;2.50;;;12.40;98.20;;;;;;4925010;29;20032;-83
2022/10/30 06:45:14;;;;;;;7.93;2.58;;;12.50;98.00;;;;;;4945802;29;20041;-84
2022/10/30 06:47:40;;;;;;;5.63;2.28;;;12.60;97.80;;;;;;4946574;29;20114;-83
2022/10/30 06:50:08;;;;;;;9.77;2.53;;;12.60;97.60;;;;;;4947888;29;20090;-83
2022/10/30 06:52:34;;;;;;;5.60;2.80;;;12.70;97.40;;;;;;4926344;29;20027;-83
2022/10/30 06:55:00;;;;;;;6.50;2.47;;;12.80;97.20;;;;;;4926309;29;20481;-85
2022/10/30 06:57:26;;;;;;;5.30;2.35;;;12.90;97.00;;;;;;4942800;29;20027;-84
2022/10/30 06:59:51;;;;;;;7.63;2.50;;;12.90;96.70;;;;;;4945257;29;20055;-84
2022/10/30 07:02:17;;;;;;;4.85;2.22;;;13.00;96.70;;;;;;4943346;29;20027;-86
2022/10/30 07:04:44;;;;;;;4.97;2.30;;;13.10;96.30;;;;;;4943631;29;20034;-82
2022/10/30 07:07:11;;;;;;;5.35;2.53;;;13.20;96.10;;;;;;4945212;29;20063;-84
2022/10/30 07:09:36;;;;;;;4.78;2.53;;;13.30;95.80;;;;;;4925433;29;20032;-84
2022/10/30 07:12:02;;;;;;;5.30;2.38;;;13.40;95.50;;;;;;4943273;29;20020;-84
2022/10/30 07:14:28;;;;;;;2.97;2.53;;;13.50;95.30;;;;;;4924868;29;20020;-85
2022/10/30 07:16:54;;;;;;;2.83;1.67;;;13.60;95.20;;;;;;4939994;29;20031;-84
2022/10/30 07:19:20;;;;;;;6.40;2.60;;;13.80;95.00;;;;;;4943954;29;20055;-84
2022/10/30 07:21:46;;;;;;;4.85;2.15;;;14.10;94.50;;;;;;4942316;29;20031;-85
2022/10/30 07:24:12;;;;;;;3.42;2.08;;;14.50;94.00;;;;;;4957939;28;20034;-84
2022/10/30 07:26:38;;;;;;;7.15;2.67;;;15.10;93.00;;;;;;4946567;29;20039;-81
2022/10/30 07:29:04;;;;;;;8.55;3.10;;;15.30;91.70;;;;;;4941192;29;20024;-82
2022/10/30 07:31:30;;;;;;;6.50;2.95;;;15.20;91.00;;;;;;4942062;29;20453;-84
2022/10/30 07:34:08;;;;;;;7.47;2.33;;;15.10;90.90;;;;;;4929487;29;20028;-83
2022/10/30 07:36:34;;;;;;;8.18;2.90;;;15.00;91.00;;;;;;4930233;29;20047;-82
2022/10/30 07:39:05;;;;;;;4.30;2.30;;;15.00;91.00;;;;;;4950843;29;20087;-83
2022/10/30 07:41:31;;;;;;;3.25;1.80;;;15.10;91.20;;;;;;4952429;29;20028;-83
2022/10/30 07:44:00;;;;;;;3.00;1.73;;;15.70;90.80;;;;;;4951242;29;20035;-85
2022/10/30 07:46:26;;;;;;;4.72;1.92;;;16.20;88.60;;;;;;4945171;29;20027;-83
2022/10/30 07:48:51;;;;;;;6.85;2.38;;;16.20;87.00;;;;;;4929305;29;20551;-83
2022/10/30 07:51:17;;;;;;;4.15;1.90;;;16.20;86.00;;;;;;4945745;29;20041;-82
2022/10/30 07:53:43;;;;;;;2.50;1.60;;;16.10;85.70;;;;;;4959486;28;20071;-82
2022/10/30 07:56:09;;;;;;;3.53;1.50;;;16.20;85.60;;;;;;4967549;28;20032;-85
2022/10/30 07:58:36;;;;;;;3.00;1.80;;;16.40;85.20;;;;;;4949990;29;20036;-84
2022/10/30 08:01:02;;;;;;;5.47;1.55;;;16.90;83.40;;;;;;4948483;29;20028;-83
2022/10/30 08:03:28;;;;;;;5.63;1.85;;;17.10;80.90;;;;;;4929409;29;20067;-86
2022/10/30 08:05:54;;;;;;;4.80;2.30;;;17.10;79.80;;;;;;4945587;29;20042;-85
2022/10/30 08:08:19;;;;;;;3.22;1.83;;;17.00;79.40;;;;;;4929518;29;20056;-85
2022/10/30 08:10:45;;;;;;;6.15;1.65;;;16.90;79.30;;;;;;4947031;29;20105;-84
2022/10/30 08:13:13;;;;;;;2.50;1.27;;;16.80;79.40;;;;;;4947435;29;20123;-84
2022/10/30 08:15:38;;;;;;;4.65;1.83;;;16.70;79.40;;;;;;4930746;29;20076;-84
2022/10/30 08:18:04;;;;;;;3.42;1.85;;;16.70;79.40;;;;;;4946679;29;20105;-85
2022/10/30 08:20:30;;;;;;;4.18;1.75;;;16.90;79.00;;;;;;4946136;29;20277;-84
2022/10/30 08:22:56;;;;;;;6.35;1.98;;;17.00;78.40;;;;;;4933149;29;20028;-83
2022/10/30 08:25:28;;;;;;;3.40;1.92;;;17.20;77.70;;;;;;4952167;29;20488;-85
2022/10/30 08:28:05;;;;;;;8.63;2.55;;;17.40;76.90;;;;;;4934494;29;20410;-84
2022/10/30 08:30:33;;;;;;;3.47;1.88;;;17.70;75.70;;;;;;4942061;29;20035;-84
2022/10/30 08:33:01;;;;;;;5.63;1.92;;;17.80;74.70;;;;;;4934594;29;20084;-83
2022/10/30 08:35:27;;;;;;;5.63;2.03;;;17.90;74.00;;;;;;4954132;28;20059;-80
2022/10/30 08:38:01;;;;;;;2.90;1.60;;;18.00;73.20;;;;;;4961346;28;20035;-81
2022/10/30 08:40:27;;;;;;;3.25;1.98;;;18.10;72.50;;;;;;4961109;28;20202;-83
2022/10/30 08:42:54;;;;;;;4.35;1.90;;;18.30;72.10;;;;;;4960291;29;20079;-81
2022/10/30 08:45:21;;;;;;;4.07;1.50;;;18.40;71.40;;;;;;4960965;28;20028;-83
2022/10/30 08:47:54;;;;;;;4.43;2.00;;;18.60;70.70;;;;;;4956601;29;20027;-84
2022/10/30 08:50:20;;;;;;;3.17;1.48;;;18.70;69.90;;;;;;4946073;29;20118;-83
2022/10/30 08:52:46;;;;;;;3.60;1.90;;;18.90;69.40;;;;;;4934072;29;20032;-83
2022/10/30 08:55:11;;;;;;;2.92;1.55;;;19.00;68.60;;;;;;4939603;29;20031;-84
2022/10/30 08:57:37;;;;;;;3.97;1.60;;;19.10;68.10;;;;;;4950992;29;20088;-84
2022/10/30 09:00:06;;;;;;;5.22;1.88;;;19.10;67.50;;;;;;4943427;29;20028;-85
2022/10/30 09:02:35;;;;;;;11.38;2.20;;;19.20;67.10;;;;;;4927636;29;20028;-86
2022/10/30 09:05:00;;;;;;;5.45;2.03;;;19.30;66.50;;;;;;4946859;29;20027;-84
2022/10/30 09:07:26;;;;;;;3.90;1.88;;;19.40;65.90;;;;;;4930038;29;20054;-84
2022/10/30 09:09:52;;;;;;;4.53;1.65;;;19.50;65.50;;;;;;4930804;29;20031;-83
2022/10/30 09:12:18;;;;;;;3.90;1.70;;;19.60;65.40;;;;;;4932909;29;20106;-85
2022/10/30 09:14:43;;;;;;;2.70;1.70;;;19.80;64.60;;;;;;4950558;29;20035;-85
2022/10/30 09:17:09;;;;;;;7.03;2.28;;;20.00;64.20;;;;;;4947306;29;20110;-85
2022/10/30 09:19:35;;;;;;;1.90;1.55;;;20.10;63.40;;;;;;4945948;29;20043;-83
2022/10/30 09:22:00;;;;;;;3.28;1.85;;;20.30;63.10;;;;;;4928994;29;20028;-83
2022/10/30 09:24:26;;;;;;;5.47;1.95;;;20.60;62.30;;;;;;4930049;29;20042;-85
2022/10/30 09:26:53;;;;;;;2.97;2.00;;;20.60;61.40;;;;;;4949204;29;20063;-84
2022/10/30 09:29:21;;;;;;;3.30;1.83;;;20.80;61.10;;;;;;4949765;29;20149;-84
2022/10/30 09:31:47;;;;;;;6.90;2.75;;;20.80;60.70;;;;;;4935649;28;20024;-84
2022/10/30 09:34:15;;;;;;;9.40;3.00;;;20.80;60.30;;;;;;4972924;29;20063;-84
2022/10/30 09:36:45;;;;;;;11.23;2.35;;;20.80;60.10;;;;;;4965198;29;20035;-85
2022/10/30 09:39:10;;;;;;;8.10;3.05;;;20.80;60.70;;;;;;4949174;29;20043;-84
2022/10/30 09:41:48;;;;;;;7.82;2.60;;;20.80;60.00;;;;;;4949864;29;20056;-83
2022/10/30 09:44:34;;;;;;;6.93;2.45;;;20.90;59.60;;;;;;4948997;29;20029;-85
2022/10/30 09:47:31;;;;;;;7.78;2.42;;;21.00;59.50;;;;;;4948795;29;20047;-86
2022/10/30 09:50:34;;;;;;;7.75;2.85;;;21.00;59.40;;;;;;4960373;29;20024;-84
2022/10/30 09:53:09;;;;;;;6.05;2.40;;;21.00;59.40;;;;;;4930757;29;20107;-84
2022/10/30 09:55:56;;;;;;;6.22;2.58;;;21.20;59.40;;;;;;4941882;28;20035;-82
2022/10/30 09:58:35;;;;;;;6.60;2.10;;;21.30;59.10;;;;;;4958938;28;20061;-83
2022/10/30 10:01:34;;;;;;;8.70;2.95;;;21.30;58.70;;;;;;4950971;29;20304;-84
2022/10/30 10:04:17;;;;;;;8.55;2.70;;;21.30;58.40;;;;;;4930776;29;20079;-84
2022/10/30 10:06:49;;;;;;;11.50;2.85;;;21.40;57.80;;;;;;4950779;29;20489;-84
2022/10/30 10:09:22;;;;;;;7.22;2.30;;;21.40;57.50;;;;;;4949446;29;20065;-86
2022/10/30 10:11:54;;;;;;;5.90;3.03;;;21.50;57.40;;;;;;4954350;29;20099;-83
2022/10/30 10:14:34;;;;;;;16.20;3.22;;;21.60;57.00;;;;;;4942329;29;20038;-82
2022/10/30 10:17:04;;;;;;;9.57;2.65;;;21.60;56.40;;;;;;4956946;29;20466;-84
2022/10/30 10:19:49;;;;;;;5.30;2.40;;;21.70;56.30;;;;;;4956704;29;20035;-83
2022/10/30 10:22:46;;;;;;;7.85;2.97;;;21.70;56.40;;;;;;4957451;29;20039;-82
2022/10/30 10:25:15;;;;;;;13.75;3.15;;;21.70;56.30;;;;;;4938032;29;20087;-84
2022/10/30 10:28:07;;;;;;;6.47;2.78;;;21.80;56.00;;;;;;4955928;29;20051;-83
2022/10/30 10:30:44;;;;;;;6.55;2.67;;;21.90;56.10;;;;;;4945581;28;20031;-81
2022/10/30 10:33:43;;;;;;;9.98;3.03;;;22.00;55.80;;;;;;4960350;29;20028;-81
2022/10/30 10:36:35;;;;;;;8.45;3.15;;;22.00;55.40;;;;;;4940711;29;20054;-82
2022/10/30 10:39:23;;;;;;;11.85;2.97;;;22.10;55.10;;;;;;4936013;29;20047;-83
2022/10/30 10:41:52;;;;;;;6.25;2.83;;;22.20;55.00;;;;;;4950611;29;20092;-85
2022/10/30 10:44:53;;;;;;;6.03;2.08;;;22.20;54.80;;;;;;4948405;29;20024;-83
2022/10/30 10:47:54;;;;;;;11.07;4.07;;;22.30;54.90;;;;;;4950396;29;20614;-84
2022/10/30 10:50:35;;;;;;;11.15;3.17;;;22.40;54.30;;;;;;4924413;29;20040;-84
2022/10/30 10:53:06;;;;;;;15.63;3.20;;;22.60;53.50;;;;;;4949600;29;20043;-84
2022/10/30 10:55:38;;;;;;;8.30;2.92;;;22.50;53.10;;;;;;4930209;29;20023;-82
2022/10/30 10:58:29;;;;;;;14.13;3.00;;;22.40;53.50;;;;;;4963084;29;20019;-84
2022/10/30 11:00:57;;;;;;;13.35;3.15;;;22.30;54.10;;;;;;4953678;29;20046;-82
2022/10/30 11:04:01;;;;;;;7.93;2.60;;;22.30;54.30;;;;;;4945266;29;20054;-82
2022/10/30 11:06:42;;;;;;;10.38;3.22;;;22.40;54.40;;;;;;5123350;27;20392;-83
2022/10/30 11:09:18;;;;;;;8.63;2.90;;;22.50;54.10;;;;;;5103237;28;20032;-86
2022/10/30 11:11:47;;;;;;;10.25;3.92;;;22.50;54.00;;;;;;5084689;28;20034;-86
2022/10/30 11:14:32;;;;;;;9.65;2.75;;;22.50;54.00;;;;;;5098829;28;20082;-84
2022/10/30 11:17:23;;;;;;;10.20;3.88;;;22.50;54.50;;;;;;5083489;28;20025;-84
2022/10/30 11:19:57;;;;;;;9.93;3.60;;;22.50;54.60;;;;;;5083357;28;20032;-86
2022/10/30 11:22:38;;;;;;;9.80;3.33;;;22.70;54.80;;;;;;5081306;28;20028;-84
2022/10/30 11:25:26;;;;;;;13.13;3.78;;;22.80;54.20;;;;;;5098007;28;20032;-85
2022/10/30 11:27:58;;;;;;;12.35;4.15;;;22.80;54.30;;;;;;5066054;28;20036;-85
2022/10/30 11:30:31;;;;;;;9.15;3.17;;;22.80;54.70;;;;;;5101091;28;20047;-84
2022/10/30 11:32:58;;;;;;;15.00;4.55;;;22.70;55.10;;;;;;5104148;28;20028;-84
2022/10/30 11:35:25;;;;;;;11.82;3.50;;;22.70;55.90;;;;;;5102324;28;20111;-85
2022/10/30 11:38:03;;;;;;;8.00;3.10;;;22.70;55.40;;;;;;5093870;28;20024;-85
2022/10/30 11:40:28;;;;;;;10.32;3.40;;;22.80;55.50;;;;;;5084162;28;20088;-83
2022/10/30 11:43:03;;;;;;;12.82;3.55;;;22.80;55.30;;;;;;5086174;28;20088;-84
2022/10/30 11:45:33;;;;;;;5.72;3.05;;;22.70;55.40;;;;;;5093670;28;20035;-85
2022/10/30 11:47:59;;;;;;;5.43;3.75;;;22.50;55.90;;;;;;5099913;28;20019;-84
2022/10/30 11:50:30;;;;;;;12.80;3.97;;;22.30;56.50;;;;;;5098369;28;20416;-85
2022/10/30 11:53:00;;;;;;;12.38;3.67;;;22.10;57.30;;;;;;5097074;28;20028;-83
2022/10/30 11:55:37;;;;;;;8.02;3.05;;;21.90;57.90;;;;;;5107009;28;20009;-81
2022/10/30 11:58:08;;;;;;;8.35;2.92;;;21.80;58.50;;;;;;5132050;28;20034;-89
2022/10/30 12:00:36;;;;;;;7.15;3.28;;;21.70;59.00;;;;;;5106261;28;20133;-83
2022/10/30 12:03:04;;;;;;;5.45;2.63;;;21.60;59.40;;;;;;5115142;28;20032;-85
2022/10/30 12:05:37;;;;;;;13.02;3.50;;;21.70;59.60;;;;;;5099433;28;20032;-87
2022/10/30 12:08:23;;;;;;;9.88;3.55;;;21.80;59.30;;;;;;5094660;28;20058;-83
2022/10/30 12:10:51;;;;;;;7.55;3.53;;;22.30;58.70;;;;;;5103832;28;20342;-83
2022/10/30 12:13:19;;;;;;;9.43;3.72;;;22.50;57.70;;;;;;5124372;28;20031;-84
2022/10/30 12:15:49;;;;;;;21.58;3.90;;;22.80;57.30;;;;;;5104976;28;20035;-83
2022/10/30 12:18:26;;;;;;;16.77;3.20;;;23.00;56.90;;;;;;5072732;28;20024;-84
2022/10/30 12:20:56;;;;;;;6.53;3.40;;;23.20;56.50;;;;;;5072548;28;20056;-84
2022/10/30 12:23:27;;;;;;;14.90;4.05;;;23.20;56.20;;;;;;5108310;28;20577;-84
2022/10/30 12:25:56;;;;;;;8.93;3.97;;;23.30;56.10;;;;;;5096565;28;20110;-84
2022/10/30 12:28:25;;;;;;;8.23;3.22;;;23.40;55.60;;;;;;5086461;28;20048;-84
2022/10/30 12:31:22;;;;;;;8.82;2.90;;;23.50;55.70;;;;;;5089088;28;20242;-84
2022/10/30 12:34:06;;;;;;;5.75;2.92;;;23.50;55.50;;;;;;5072399;28;20033;-84
2022/10/30 12:36:49;;;;;;;8.43;3.33;;;23.50;55.60;;;;;;5066066;28;20493;-83
2022/10/30 12:39:26;;;;;;;12.45;3.80;;;23.30;55.30;;;;;;5065100;28;20143;-84
2022/10/30 12:42:16;;;;;;;8.85;2.85;;;23.10;55.60;;;;;;5076409;28;20067;-82
2022/10/30 12:44:43;;;;;;;9.80;3.42;;;23.10;55.70;;;;;;5090353;28;20037;-84
2022/10/30 12:47:33;;;;;;;13.52;3.65;;;23.20;55.40;;;;;;5085994;28;20456;-83
2022/10/30 12:50:21;;;;;;;7.38;3.03;;;23.20;55.50;;;;;;5088535;28;20025;-83
2022/10/30 12:52:59;;;;;;;12.45;3.42;;;23.10;55.70;;;;;;5098888;28;20068;-84
2022/10/30 12:55:40;;;;;;;6.13;3.03;;;23.00;55.70;;;;;;5080718;28;20210;-83
2022/10/30 12:58:37;;;;;;;11.52;3.70;;;23.00;56.00;;;;;;5098006;28;20020;-84
2022/10/30 13:01:16;;;;;;;9.40;3.08;;;23.00;57.00;;;;;;5098310;28;20123;-83
2022/10/30 13:03:52;;;;;;;8.77;3.20;;;23.10;58.50;;;;;;5098177;28;20013;-82